Time;durP1;ratioP1;P1;durP2;ratioP2;P2;SDS_P1;SDS_P2;PMS_P1;PMS_P2;Temp;Humidity;BMP_temperature;BMP_pressure;BME280_temperature;BME280_humidity;BME280_pressure;Samples;Min_cycle;Max_cycle;Signal;HPM_P1;HPM_P2
2021/09/17 00:02:20;;;;;;;0.17;0.17;;;;;;;17.51;98.52;100707.53;5007736;28;20080;-67
2021/09/17 00:04:46;;;;;;;1.65;0.17;;;;;;;17.47;98.44;100704.03;5010081;28;20033;-66
2021/09/17 00:07:11;;;;;;;0.65;0.20;;;;;;;17.48;98.47;100700.13;5015437;28;20457;-67
2021/09/17 00:09:37;;;;;;;5.03;0.10;;;;;;;17.48;97.86;100704.81;5014504;28;20026;-66
2021/09/17 00:12:03;;;;;;;2.25;0.10;;;;;;;17.45;98.25;100694.69;5008864;28;20046;-66
2021/09/17 00:14:29;;;;;;;2.35;0.35;;;;;;;17.48;98.60;100705.59;5013531;28;20038;-66
2021/09/17 00:16:54;;;;;;;0.38;0.10;;;;;;;17.53;98.49;100705.19;5010057;28;20029;-66
2021/09/17 00:19:20;;;;;;;0.50;0.30;;;;;;;17.52;97.22;100698.16;5014204;28;20045;-66
2021/09/17 00:21:45;;;;;;;3.30;0.22;;;;;;;17.49;97.82;100701.72;5010177;28;20032;-67
2021/09/17 00:24:11;;;;;;;0.35;0.22;;;;;;;17.49;97.99;100690.03;5017992;28;20022;-66
2021/09/17 00:26:36;;;;;;;1.90;0.15;;;;;;;17.45;98.02;100681.88;5002861;28;20045;-66
2021/09/17 00:29:02;;;;;;;2.08;0.10;;;;;;;17.49;97.12;100687.31;5025742;28;20045;-66
2021/09/17 00:31:27;;;;;;;0.43;0.10;;;;;;;17.46;97.47;100683.41;5011123;28;20033;-67
2021/09/17 00:33:53;;;;;;;0.43;0.20;;;;;;;17.47;97.01;100684.97;5017259;28;20503;-66
2021/09/17 00:36:18;;;;;;;0.30;0.10;;;;;;;17.42;98.16;100684.63;5002411;28;20036;-66
2021/09/17 00:38:44;;;;;;;0.25;0.13;;;;;;;17.32;98.03;100683.53;5013644;28;20037;-67
2021/09/17 00:41:11;;;;;;;0.28;0.10;;;;;;;17.36;97.97;100676.09;5018094;28;20040;-66
2021/09/17 00:43:37;;;;;;;1.92;0.60;;;;;;;17.37;98.04;100677.63;5028861;28;20034;-66
2021/09/17 00:46:03;;;;;;;0.77;0.17;;;;;;;17.34;98.15;100673.00;5027087;28;20041;-66
2021/09/17 00:48:29;;;;;;;1.98;0.20;;;;;;;17.35;97.90;100681.91;5013618;28;20033;-67
2021/09/17 00:50:54;;;;;;;0.10;0.10;;;;;;;17.32;98.71;100680.00;5011114;28;20033;-66
2021/09/17 00:53:20;;;;;;;0.30;0.20;;;;;;;17.33;97.83;100681.53;5022522;28;20134;-66
2021/09/17 00:55:45;;;;;;;0.13;0.10;;;;;;;17.36;97.16;100673.38;5010198;28;20030;-67
2021/09/17 00:58:11;;;;;;;0.98;0.50;;;;;;;17.32;96.78;100675.34;5022388;28;20176;-67
2021/09/17 01:00:36;;;;;;;1.88;0.10;;;;;;;17.33;96.70;100681.53;5022721;28;20631;-67
2021/09/17 01:03:02;;;;;;;0.75;0.20;;;;;;;17.32;95.64;100680.78;5019032;28;20038;-66
2021/09/17 01:05:28;;;;;;;0.70;0.15;;;;;;;17.34;95.34;100675.72;5020064;28;20099;-66
2021/09/17 01:07:53;;;;;;;0.10;0.10;;;;;;;17.31;95.77;100684.69;5023930;28;20099;-66
2021/09/17 01:10:19;;;;;;;0.52;0.40;;;;;;;17.35;95.70;100677.25;5020438;28;20457;-66
2021/09/17 01:12:45;;;;;;;0.47;0.10;;;;;;;17.33;95.64;100676.88;5004844;28;20025;-66
2021/09/17 01:15:11;;;;;;;0.88;0.20;;;;;;;17.36;94.78;100683.50;5021336;28;20142;-66
2021/09/17 01:17:39;;;;;;;0.10;0.10;;;;;;;17.29;95.30;100681.56;4986701;28;20125;-67
2021/09/17 01:20:08;;;;;;;1.45;0.10;;;;;;;17.26;94.85;100690.56;4995741;28;20109;-67
2021/09/17 01:22:33;;;;;;;1.85;0.20;;;;;;;17.29;94.83;100687.03;5007596;28;20030;-66
2021/09/17 01:24:59;;;;;;;0.32;0.30;;;;;;;17.26;94.79;100678.88;5027437;28;20099;-66
2021/09/17 01:27:25;;;;;;;0.38;0.20;;;;;;;17.20;95.68;100685.91;5013884;28;20320;-66
2021/09/17 01:29:51;;;;;;;0.13;0.10;;;;;;;17.14;96.13;100685.56;5019579;28;20544;-66
2021/09/17 01:32:17;;;;;;;0.40;0.10;;;;;;;17.20;95.79;100691.34;5018466;28;20072;-66
2021/09/17 01:34:43;;;;;;;2.30;0.20;;;;;;;17.17;95.85;100675.84;5023369;28;20033;-66
2021/09/17 01:37:09;;;;;;;0.88;0.20;;;;;;;17.20;95.29;100675.81;5020335;28;20468;-66
2021/09/17 01:39:34;;;;;;;0.30;0.10;;;;;;;17.25;95.11;100678.09;5028237;28;20432;-67
2021/09/17 01:42:00;;;;;;;0.20;0.10;;;;;;;17.15;95.46;100677.00;5001755;28;20483;-66
2021/09/17 01:44:25;;;;;;;1.02;0.20;;;;;;;17.17;95.44;100684.75;5030690;28;20041;-65
2021/09/17 01:46:50;;;;;;;0.98;0.10;;;;;;;17.22;95.78;100678.91;5013545;28;20037;-66
2021/09/17 01:49:16;;;;;;;0.10;0.10;;;;;;;17.22;95.05;100676.19;5015943;28;20394;-66
2021/09/17 01:51:41;;;;;;;0.20;0.20;;;;;;;17.22;94.97;100678.91;5013353;28;20083;-66
2021/09/17 01:54:07;;;;;;;1.10;0.10;;;;;;;17.19;95.38;100676.22;5015430;28;20026;-66
2021/09/17 01:56:33;;;;;;;0.10;0.10;;;;;;;17.26;94.96;100668.78;5016270;28;20029;-66
2021/09/17 01:58:59;;;;;;;0.90;0.13;;;;;;;17.17;94.74;100669.22;5006084;28;20045;-65
2021/09/17 02:01:26;;;;;;;0.75;0.10;;;;;;;17.23;94.41;100666.09;5009810;28;20025;-66
2021/09/17 02:03:51;;;;;;;0.30;0.20;;;;;;;17.22;94.71;100672.69;5010949;28;20498;-66
2021/09/17 02:06:22;;;;;;;2.75;0.20;;;;;;;17.19;95.01;100676.22;5013118;28;20068;-66
2021/09/17 02:08:48;;;;;;;0.82;0.20;;;;;;;17.12;94.41;100675.09;5008407;28;20486;-66
2021/09/17 02:11:14;;;;;;;0.95;0.10;;;;;;;17.20;94.21;100670.38;5007977;28;20040;-67
2021/09/17 02:13:39;;;;;;;0.65;0.17;;;;;;;17.17;94.99;100668.44;5013077;28;20172;-66
2021/09/17 02:16:05;;;;;;;0.10;0.10;;;;;;;17.25;94.69;100669.19;5012229;28;20037;-67
2021/09/17 02:18:30;;;;;;;0.10;0.10;;;;;;;17.19;94.88;100670.78;5020524;28;20113;-66
2021/09/17 02:20:55;;;;;;;0.10;0.10;;;;;;;17.19;94.88;100666.09;5016197;28;20120;-66
2021/09/17 02:23:21;;;;;;;2.40;0.32;;;;;;;17.21;95.03;100671.91;5013466;28;20100;-67
2021/09/17 02:25:47;;;;;;;0.85;0.10;;;;;;;17.17;95.10;100668.44;5001167;28;20041;-66
2021/09/17 02:28:12;;;;;;;0.10;0.10;;;;;;;17.20;95.29;100664.94;5023356;28;20510;-66
2021/09/17 02:30:38;;;;;;;0.20;0.20;;;;;;;17.27;95.46;100667.59;5008845;28;20042;-67
2021/09/17 02:33:04;;;;;;;0.17;0.10;;;;;;;17.26;95.02;100663.34;5015442;28;20029;-66
2021/09/17 02:35:29;;;;;;;2.53;0.28;;;;;;;17.21;95.17;100663.75;5010474;28;20042;-66
2021/09/17 02:37:55;;;;;;;0.50;0.20;;;;;;;17.18;94.75;100661.81;5004658;28;20097;-66
2021/09/17 02:40:20;;;;;;;0.50;0.10;;;;;;;17.19;94.45;100665.31;5029281;28;20021;-67
2021/09/17 02:42:46;;;;;;;0.00;0.00;;;;;;;17.17;94.01;100656.78;5027744;28;20039;-66
2021/09/17 02:45:14;;;;;;;0.30;0.17;;;;;;;17.17;94.44;100662.22;5018539;28;20033;-66
2021/09/17 02:47:41;;;;;;;0.30;0.30;;;;;;;17.20;94.16;100658.69;5018523;28;20119;-67
2021/09/17 02:50:07;;;;;;;0.10;0.10;;;;;;;17.21;94.26;100666.47;5020601;28;20368;-66
2021/09/17 02:52:32;;;;;;;2.08;0.10;;;;;;;17.22;94.11;100664.53;5022632;28;20522;-66
2021/09/17 02:54:58;;;;;;;0.47;0.10;;;;;;;17.17;94.20;100662.97;5019489;28;20053;-67
2021/09/17 02:57:23;;;;;;;0.98;0.10;;;;;;;17.12;94.69;100663.41;5013706;28;20382;-66
2021/09/17 02:59:49;;;;;;;0.73;0.22;;;;;;;17.09;94.02;100656.06;5017244;28;20037;-66
2021/09/17 03:02:16;;;;;;;0.35;0.10;;;;;;;17.10;94.02;100665.75;5021410;28;20053;-67
2021/09/17 03:04:41;;;;;;;0.35;0.17;;;;;;;17.06;94.45;100663.06;5028451;28;20379;-66
2021/09/17 03:07:07;;;;;;;0.17;0.10;;;;;;;17.01;95.05;100666.19;5014723;28;20088;-66
2021/09/17 03:09:32;;;;;;;0.43;0.20;;;;;;;17.07;94.76;100661.88;5011902;28;20093;-66
2021/09/17 03:11:58;;;;;;;0.55;0.10;;;;;;;17.10;94.67;100663.81;5010625;28;20037;-67
2021/09/17 03:14:23;;;;;;;0.55;0.32;;;;;;;17.15;94.13;100660.66;5008079;28;20502;-66
2021/09/17 03:16:49;;;;;;;1.33;0.13;;;;;;;17.15;93.87;100671.56;5013111;28;20045;-66
2021/09/17 03:19:15;;;;;;;0.20;0.17;;;;;;;17.12;93.89;100658.75;5032919;28;20212;-66
2021/09/17 03:21:41;;;;;;;0.13;0.10;;;;;;;17.12;93.78;100660.69;5023992;28;20030;-66
2021/09/17 03:24:07;;;;;;;0.08;0.08;;;;;;;17.11;93.73;100661.88;5023191;28;20080;-66
2021/09/17 03:26:32;;;;;;;0.32;0.00;;;;;;;17.05;93.49;100655.31;5011379;28;20048;-67
2021/09/17 03:28:59;;;;;;;0.10;0.10;;;;;;;17.03;93.25;100657.66;5026125;28;20033;-66
2021/09/17 03:31:25;;;;;;;0.28;0.10;;;;;;;17.03;93.34;100663.09;5017378;28;20117;-66
2021/09/17 03:33:50;;;;;;;0.20;0.10;;;;;;;16.99;93.39;100665.06;5025637;28;20037;-67
2021/09/17 03:36:16;;;;;;;1.67;0.10;;;;;;;17.05;93.43;100660.75;5014513;28;20521;-67
2021/09/17 03:38:41;;;;;;;0.77;0.10;;;;;;;17.04;92.88;100659.19;5028781;28;20041;-66
2021/09/17 03:41:07;;;;;;;0.45;0.10;;;;;;;17.02;93.25;100659.59;5016740;28;20033;-65
2021/09/17 03:43:33;;;;;;;0.10;0.10;;;;;;;17.01;93.88;100670.88;5017274;28;20029;-67
2021/09/17 03:45:59;;;;;;;0.17;0.10;;;;;;;17.06;93.67;100656.84;5012093;28;20164;-67
2021/09/17 03:48:24;;;;;;;0.10;0.10;;;;;;;17.02;93.47;100669.69;5017332;28;20128;-66
2021/09/17 03:50:50;;;;;;;0.20;0.20;;;;;;;17.08;93.31;100676.25;5009396;28;20069;-67
2021/09/17 03:53:15;;;;;;;1.10;0.10;;;;;;;17.10;92.44;100663.03;5018945;28;20041;-66
2021/09/17 03:55:41;;;;;;;0.52;0.03;;;;;;;16.98;92.64;100658.84;5019476;28;20036;-67
2021/09/17 03:58:06;;;;;;;0.15;0.00;;;;;;;17.04;91.61;100667.34;5021546;28;20037;-66
2021/09/17 04:00:33;;;;;;;0.40;0.10;;;;;;;17.02;91.49;100666.97;5023229;28;20033;-66
2021/09/17 04:02:58;;;;;;;0.10;0.10;;;;;;;16.93;91.25;100658.47;5016340;28;20487;-67
2021/09/17 04:05:24;;;;;;;0.10;0.00;;;;;;;16.97;90.60;100667.41;4995876;28;20124;-66
2021/09/17 04:07:49;;;;;;;0.10;0.10;;;;;;;16.94;91.04;100665.44;4992329;28;20157;-66
2021/09/17 04:10:17;;;;;;;0.10;0.00;;;;;;;16.91;91.06;100667.03;4997582;28;20022;-68
2021/09/17 04:12:44;;;;;;;0.08;0.00;;;;;;;16.92;90.39;100665.06;5007794;28;20087;-67
2021/09/17 04:15:10;;;;;;;0.00;0.00;;;;;;;16.89;90.60;100671.31;5005855;28;20049;-66
2021/09/17 04:17:35;;;;;;;0.10;0.10;;;;;;;16.86;90.44;100669.41;5019738;28;20565;-66
2021/09/17 04:20:02;;;;;;;0.65;0.20;;;;;;;16.86;89.84;100664.72;5007367;28;20168;-66
2021/09/17 04:22:27;;;;;;;0.60;0.30;;;;;;;16.85;89.91;100678.72;5020264;28;20053;-66
2021/09/17 04:24:53;;;;;;;0.13;0.00;;;;;;;16.89;89.17;100671.31;5019849;28;20123;-66
2021/09/17 04:27:21;;;;;;;0.10;0.08;;;;;;;16.83;89.43;100675.63;5020879;28;20076;-66
2021/09/17 04:29:48;;;;;;;0.10;0.10;;;;;;;16.87;88.78;100676.38;5014889;28;20047;-65
2021/09/17 04:32:13;;;;;;;0.20;0.10;;;;;;;16.91;87.95;100677.94;5010041;28;20049;-66
2021/09/17 04:34:39;;;;;;;0.00;0.00;;;;;;;16.84;89.16;100674.47;5022313;28;20033;-67
2021/09/17 04:37:05;;;;;;;0.10;0.10;;;;;;;16.88;88.56;100683.38;5014985;28;20495;-66
2021/09/17 04:39:30;;;;;;;0.30;0.10;;;;;;;16.83;88.49;100673.69;5013408;28;20486;-66
2021/09/17 04:41:56;;;;;;;1.45;0.10;;;;;;;16.85;88.40;100678.72;5007514;28;20036;-66
2021/09/17 04:44:21;;;;;;;0.10;0.00;;;;;;;16.77;88.72;100683.44;5000129;28;20040;-67
2021/09/17 04:46:47;;;;;;;0.20;0.00;;;;;;;16.77;89.37;100696.25;5013366;28;20545;-66
2021/09/17 04:49:12;;;;;;;0.00;0.00;;;;;;;16.76;88.90;100686.56;5010180;28;20036;-66
2021/09/17 04:51:38;;;;;;;0.17;0.00;;;;;;;16.78;88.49;100701.28;5017808;28;20026;-67
2021/09/17 04:54:04;;;;;;;0.20;0.00;;;;;;;16.78;88.92;100689.66;5002580;28;20031;-66
2021/09/17 04:56:30;;;;;;;0.17;0.10;;;;;;;16.67;89.28;100697.06;5008368;28;20045;-66
2021/09/17 04:58:55;;;;;;;0.00;0.00;;;;;;;16.70;89.53;100693.56;5021110;28;20034;-67
2021/09/17 05:01:21;;;;;;;0.30;0.15;;;;;;;16.71;89.24;100701.31;5006786;28;20417;-66
2021/09/17 05:03:47;;;;;;;0.00;0.00;;;;;;;16.72;88.02;100700.16;5018343;28;20045;-66
2021/09/17 05:06:13;;;;;;;0.00;0.00;;;;;;;16.72;88.10;100704.81;5010136;28;20034;-66
2021/09/17 05:08:38;;;;;;;0.10;0.00;;;;;;;16.66;88.20;100698.25;5021312;28;20041;-66
2021/09/17 05:11:04;;;;;;;0.00;0.00;;;;;;;16.62;87.70;100697.47;5006035;28;20100;-67
2021/09/17 05:13:29;;;;;;;0.10;0.10;;;;;;;16.59;88.14;100692.84;5009108;28;20417;-66
2021/09/17 05:15:55;;;;;;;0.05;0.05;;;;;;;16.69;87.52;100708.31;5012995;28;20410;-65
2021/09/17 05:18:20;;;;;;;0.00;0.00;;;;;;;16.72;86.86;100696.66;4998302;28;20035;-66
2021/09/17 05:20:46;;;;;;;0.00;0.00;;;;;;;16.60;87.17;100706.03;5008248;28;20096;-66
2021/09/17 05:23:11;;;;;;;0.00;0.00;;;;;;;16.54;87.68;100695.94;5008680;28;20044;-66
2021/09/17 05:25:37;;;;;;;0.20;0.03;;;;;;;16.62;87.50;100698.25;4995512;28;20042;-66
2021/09/17 05:28:03;;;;;;;0.00;0.00;;;;;;;16.63;87.04;100699.78;5015999;28;20750;-66
2021/09/17 05:30:28;;;;;;;0.00;0.00;;;;;;;16.72;86.24;100694.72;5001976;28;20018;-65
2021/09/17 05:32:53;;;;;;;0.00;0.00;;;;;;;16.71;86.72;100703.25;5010338;28;20403;-65
2021/09/17 05:35:19;;;;;;;0.05;0.00;;;;;;;16.64;87.00;100701.38;5016002;28;20052;-65
2021/09/17 05:37:44;;;;;;;0.00;0.00;;;;;;;16.63;87.74;100705.25;4998624;28;20117;-66
2021/09/17 05:40:10;;;;;;;0.10;0.10;;;;;;;16.68;87.29;100706.78;5021129;22;20073;-69
2021/09/17 05:42:36;;;;;;;0.10;0.10;;;;;;;16.67;86.66;100706.00;5004074;28;20508;-69
2021/09/17 05:45:03;;;;;;;0.00;0.00;;;;;;;16.61;86.49;100693.97;5007021;28;20036;-71
2021/09/17 05:47:29;;;;;;;0.10;0.10;;;;;;;16.59;87.59;100698.28;5006574;28;20053;-69
2021/09/17 05:49:54;;;;;;;0.10;0.03;;;;;;;16.70;87.04;100705.22;5006166;28;20490;-69
2021/09/17 05:52:20;;;;;;;0.95;0.00;;;;;;;16.66;86.22;100698.25;4990286;28;20072;-68
2021/09/17 05:54:46;;;;;;;0.00;0.00;;;;;;;16.63;86.93;100696.28;5000175;28;20034;-70
2021/09/17 05:57:12;;;;;;;0.03;0.03;;;;;;;16.65;86.52;100699.41;4995894;28;20034;-70
2021/09/17 05:59:37;;;;;;;0.25;0.10;;;;;;;16.70;86.77;100705.22;4998498;28;20029;-68
2021/09/17 06:02:05;;;;;;;0.00;0.00;;;;;;;16.73;87.08;100703.66;5017114;28;20034;-68
2021/09/17 06:04:31;;;;;;;0.00;0.00;;;;;;;16.80;87.71;100700.91;5013123;28;20038;-69
2021/09/17 06:06:56;;;;;;;1.13;0.00;;;;;;;16.88;87.09;100694.25;5004666;28;20466;-71
2021/09/17 06:09:24;;;;;;;0.20;0.10;;;;;;;16.84;86.81;100704.41;5005673;28;20037;-69
2021/09/17 06:11:50;;;;;;;0.10;0.10;;;;;;;16.87;86.38;100698.16;5011122;28;20390;-68
2021/09/17 06:14:16;;;;;;;0.10;0.10;;;;;;;16.93;86.06;100700.06;5011693;28;20513;-69
2021/09/17 06:16:41;;;;;;;0.25;0.25;;;;;;;17.01;85.20;100698.84;5010430;28;20041;-69
2021/09/17 06:19:07;;;;;;;0.10;0.10;;;;;;;16.98;85.53;100704.31;5012818;28;20069;-69
2021/09/17 06:21:33;;;;;;;0.10;0.00;;;;;;;17.04;85.58;100708.16;5001666;28;20483;-71
2021/09/17 06:24:00;;;;;;;0.30;0.03;;;;;;;17.01;85.84;100709.72;5007653;28;20042;-70
2021/09/17 06:26:30;;;;;;;0.03;0.00;;;;;;;17.01;85.83;100704.28;5006157;28;20045;-69
2021/09/17 06:28:58;;;;;;;0.25;0.10;;;;;;;17.02;85.11;100710.50;5013744;28;20040;-68
2021/09/17 06:31:24;;;;;;;1.35;0.10;;;;;;;17.06;84.60;100698.44;5005191;28;20033;-68
2021/09/17 06:33:49;;;;;;;0.10;0.10;;;;;;;17.05;85.45;100707.75;5008771;28;20079;-69
2021/09/17 06:36:15;;;;;;;0.08;0.08;;;;;;;17.09;84.75;100710.50;5012352;28;20501;-69
2021/09/17 06:38:40;;;;;;;0.00;0.00;;;;;;;17.08;85.54;100715.16;5006027;28;20030;-69
2021/09/17 06:41:06;;;;;;;0.10;0.05;;;;;;;17.08;85.24;100714.38;5015187;28;20060;-68
2021/09/17 06:43:31;;;;;;;0.10;0.10;;;;;;;17.11;84.77;100713.59;5011738;28;20191;-69
2021/09/17 06:45:57;;;;;;;0.00;0.00;;;;;;;17.14;84.86;100715.50;5015242;28;20036;-68
2021/09/17 06:48:22;;;;;;;0.00;0.00;;;;;;;17.21;84.09;100722.88;5012172;28;20466;-68
2021/09/17 06:50:48;;;;;;;0.10;0.10;;;;;;;17.18;83.81;100718.97;5012507;28;20018;-70
2021/09/17 06:53:14;;;;;;;0.08;0.00;;;;;;;17.17;84.21;100714.69;5005315;28;20034;-69
2021/09/17 06:55:40;;;;;;;0.13;0.05;;;;;;;17.14;84.25;100723.66;5012765;28;20045;-69
2021/09/17 06:58:06;;;;;;;0.10;0.00;;;;;;;17.13;83.87;100716.66;5011178;28;20042;-69
2021/09/17 07:00:35;;;;;;;0.57;0.10;;;;;;;17.08;84.17;100714.38;4995996;28;20031;-68
2021/09/17 07:03:01;;;;;;;0.75;0.10;;;;;;;17.11;83.70;100713.59;5017909;28;20464;-70
2021/09/17 07:05:30;;;;;;;1.35;0.10;;;;;;;17.15;83.76;100709.66;5012386;28;20053;-69
2021/09/17 07:08:09;;;;;;;0.10;0.10;;;;;;;17.19;82.62;100715.06;5004624;28;20034;-69
2021/09/17 07:10:37;;;;;;;0.22;0.10;;;;;;;17.23;82.81;100704.94;5008570;28;20026;-69
2021/09/17 07:13:03;;;;;;;0.10;0.03;;;;;;;17.26;82.16;100708.81;5004918;28;20057;-70
2021/09/17 07:15:29;;;;;;;0.00;0.00;;;;;;;17.28;82.30;100712.72;4999938;28;20040;-69
2021/09/17 07:17:55;;;;;;;0.00;0.00;;;;;;;17.36;81.25;100708.78;5002300;28;20480;-70
2021/09/17 07:20:20;;;;;;;0.10;0.05;;;;;;;17.41;81.44;100710.28;5011609;28;20032;-69
2021/09/17 07:22:46;;;;;;;0.00;0.00;;;;;;;17.45;80.93;100714.53;5011329;28;20041;-68
2021/09/17 07:25:12;;;;;;;0.00;0.00;;;;;;;17.61;80.25;100714.06;5009031;28;20041;-68
2021/09/17 07:27:38;;;;;;;0.10;0.10;;;;;;;17.78;78.95;100713.94;5016054;28;20033;-68
2021/09/17 07:30:08;;;;;;;0.00;0.00;;;;;;;17.92;79.28;100713.78;5001271;28;20026;-69
2021/09/17 07:32:34;;;;;;;0.00;0.00;;;;;;;18.08;77.87;100715.25;5011233;28;20113;-70
2021/09/17 07:35:00;;;;;;;0.00;0.00;;;;;;;18.23;78.05;100719.38;5001676;28;20033;-69
2021/09/17 07:37:25;;;;;;;0.00;0.00;;;;;;;18.38;78.04;100718.81;4998662;28;20025;-69
2021/09/17 07:39:51;;;;;;;0.00;0.00;;;;;;;18.64;76.74;100722.88;4994153;28;20027;-68
2021/09/17 07:42:17;;;;;;;0.20;0.20;;;;;;;18.79;75.13;100722.25;4995512;28;20035;-69
2021/09/17 07:44:43;;;;;;;0.00;0.00;;;;;;;19.00;74.15;100731.38;4999484;28;20406;-69
2021/09/17 07:47:08;;;;;;;0.17;0.17;;;;;;;19.15;72.92;100727.28;4997675;28;20061;-69
2021/09/17 07:49:34;;;;;;;0.00;0.00;;;;;;;19.23;72.31;100729.50;4993474;28;20065;-69
2021/09/17 07:52:00;;;;;;;0.00;0.00;;;;;;;19.35;71.81;100720.78;4997890;28;20118;-69
2021/09/17 07:54:26;;;;;;;0.00;0.00;;;;;;;19.42;71.89;100725.34;5009216;28;20508;-68
2021/09/17 07:56:53;;;;;;;0.10;0.00;;;;;;;19.47;70.17;100731.13;5008781;28;20026;-68
2021/09/17 07:59:19;;;;;;;0.00;0.00;;;;;;;19.60;70.98;100742.28;5010862;28;20034;-68
2021/09/17 08:01:45;;;;;;;0.00;0.00;;;;;;;19.73;69.74;100740.50;5003218;28;20661;-69
2021/09/17 08:04:10;;;;;;;0.20;0.10;;;;;;;19.83;68.39;100734.09;5019331;28;20030;-68
2021/09/17 08:06:36;;;;;;;2.55;0.10;;;;;;;19.86;69.08;100735.22;5007973;28;20568;-68
2021/09/17 08:09:01;;;;;;;0.00;0.00;;;;;;;19.93;68.92;100744.09;5013183;28;20068;-70
2021/09/17 08:11:27;;;;;;;0.05;0.00;;;;;;;19.95;68.03;100738.19;5010746;28;20033;-69
2021/09/17 08:13:52;;;;;;;0.00;0.00;;;;;;;20.12;68.47;100746.09;5010502;28;20034;-69
2021/09/17 08:16:18;;;;;;;0.30;0.00;;;;;;;20.22;67.85;100756.13;4993190;28;20108;-69
2021/09/17 08:18:45;;;;;;;0.60;0.00;;;;;;;20.25;67.36;100744.34;5011289;28;20445;-69
2021/09/17 08:21:14;;;;;;;0.03;0.00;;;;;;;20.30;65.70;100751.31;5010414;28;20037;-69
2021/09/17 08:23:39;;;;;;;0.10;0.10;;;;;;;20.33;66.54;100751.22;5005144;28;20068;-69
2021/09/17 08:26:07;;;;;;;0.00;0.00;;;;;;;20.37;65.58;100760.16;5008663;28;20065;-68
2021/09/17 08:28:33;;;;;;;0.00;0.00;;;;;;;20.40;65.59;100755.81;5010981;28;20041;-70
2021/09/17 08:31:01;;;;;;;0.08;0.00;;;;;;;20.54;66.28;100750.06;5008271;28;20033;-70
2021/09/17 08:33:27;;;;;;;0.08;0.00;;;;;;;20.59;66.38;100755.84;5005743;28;20108;-69
2021/09/17 08:35:53;;;;;;;0.10;0.00;;;;;;;20.72;65.83;100753.25;5011568;28;20432;-69
2021/09/17 08:38:19;;;;;;;0.00;0.00;;;;;;;20.87;66.15;100751.75;5010190;28;20033;-68
2021/09/17 08:40:45;;;;;;;0.00;0.00;;;;;;;20.87;64.54;100759.97;5010870;28;20030;-69
2021/09/17 08:43:14;;;;;;;0.00;0.00;;;;;;;20.99;65.54;100764.81;5007711;28;20116;-70
2021/09/17 08:45:41;;;;;;;0.10;0.10;;;;;;;21.14;63.26;100744.16;5009387;28;20041;-69
2021/09/17 08:48:07;;;;;;;0.25;0.03;;;;;;;21.24;62.87;100758.84;5010874;28;20104;-70
2021/09/17 08:50:33;;;;;;;0.32;0.00;;;;;;;21.29;62.66;100764.59;5010773;28;20097;-67
2021/09/17 08:53:00;;;;;;;0.10;0.03;;;;;;;21.32;63.18;100760.22;5008529;28;20037;-68
2021/09/17 08:55:26;;;;;;;0.30;0.10;;;;;;;21.29;61.14;100761.09;5010749;28;20121;-67
2021/09/17 08:57:51;;;;;;;2.47;0.65;;;;;;;21.39;61.78;100774.53;5010290;28;20033;-67
2021/09/17 09:00:26;;;;;;;0.00;0.00;;;;;;;21.66;60.75;100765.34;4992714;28;20090;-67
2021/09/17 09:02:54;;;;;;;2.22;0.00;;;;;;;21.82;60.04;100777.13;5008040;28;20044;-68
2021/09/17 09:05:26;;;;;;;2.08;0.00;;;;;;;21.66;58.43;100770.84;5010316;28;20072;-68
2021/09/17 09:07:51;;;;;;;0.10;0.05;;;;;;;21.50;59.38;100761.38;5014351;28;20037;-68
2021/09/17 09:10:17;;;;;;;0.00;0.00;;;;;;;21.42;60.17;100770.19;5009876;28;20038;-67
2021/09/17 09:12:44;;;;;;;0.28;0.00;;;;;;;21.24;61.68;100761.56;5009403;28;20108;-67
2021/09/17 09:15:16;;;;;;;0.00;0.00;;;;;;;20.96;62.59;100765.66;5010629;28;20037;-67
2021/09/17 09:17:43;;;;;;;0.00;0.00;;;;;;;20.79;62.63;100764.03;5007137;28;20029;-67
2021/09/17 09:20:26;;;;;;;0.03;0.00;;;;;;;20.60;63.19;100771.06;5017708;28;20137;-67
2021/09/17 09:23:04;;;;;;;0.00;0.00;;;;;;;20.56;63.66;100770.34;5009224;28;20057;-67
2021/09/17 09:25:30;;;;;;;0.35;0.35;;;;;;;20.53;64.20;100764.94;5007038;28;20034;-70
2021/09/17 09:28:10;;;;;;;0.00;0.00;;;;;;;20.69;63.21;100767.78;5015563;28;20033;-67
2021/09/17 09:30:35;;;;;;;0.00;0.00;;;;;;;21.01;62.34;100770.66;5002643;28;20466;-67
2021/09/17 09:33:27;;;;;;;0.00;0.00;;;;;;;21.07;59.85;100768.22;5010140;28;20057;-67
2021/09/17 09:35:57;;;;;;;0.03;0.00;;;;;;;20.96;59.02;100771.16;5001244;28;20049;-68
2021/09/17 09:38:52;;;;;;;0.03;0.00;;;;;;;20.90;60.19;100770.09;5012718;28;20080;-67
2021/09/17 09:41:19;;;;;;;0.20;0.05;;;;;;;20.75;60.38;100777.03;5011707;28;20048;-67
2021/09/17 09:43:58;;;;;;;0.50;0.00;;;;;;;20.74;61.47;100774.72;5014003;28;20029;-68
2021/09/17 09:46:26;;;;;;;0.17;0.00;;;;;;;20.69;61.30;100768.53;5017427;28;20121;-67
2021/09/17 09:49:04;;;;;;;0.10;0.00;;;;;;;20.54;60.94;100774.69;5010965;28;20029;-66
2021/09/17 09:51:34;;;;;;;0.00;0.00;;;;;;;20.56;62.12;100769.56;5012506;28;20501;-67
2021/09/17 09:54:03;;;;;;;0.10;0.00;;;;;;;20.70;62.65;100763.84;5017488;28;20040;-67
2021/09/17 09:56:29;;;;;;;0.00;0.00;;;;;;;21.01;63.08;100767.94;5023463;28;20099;-67
2021/09/17 09:58:55;;;;;;;0.00;0.00;;;;;;;21.08;59.76;100764.28;5010107;28;20493;-69
2021/09/17 10:01:23;;;;;;;0.08;0.00;;;;;;;20.94;60.51;100764.53;5010239;28;20077;-67
2021/09/17 10:03:54;;;;;;;0.00;0.00;;;;;;;21.00;60.49;100762.84;5002557;28;20512;-67
2021/09/17 10:06:20;;;;;;;0.00;0.00;;;;;;;21.00;61.24;100769.09;5013284;28;20113;-67
2021/09/17 10:08:46;;;;;;;0.00;0.00;;;;;;;21.10;60.59;100765.38;5013278;28;20053;-67
2021/09/17 10:11:12;;;;;;;0.10;0.10;;;;;;;21.02;58.52;100761.25;5001367;28;20564;-69
2021/09/17 10:13:38;;;;;;;0.82;0.10;;;;;;;20.93;59.88;100766.50;5002562;28;20457;-68
2021/09/17 10:16:04;;;;;;;0.85;0.20;;;;;;;20.78;61.74;100775.41;5010196;28;20041;-67
2021/09/17 10:18:30;;;;;;;1.00;0.30;;;;;;;20.75;62.33;100773.53;5016202;28;20048;-67
2021/09/17 10:20:56;;;;;;;0.50;0.17;;;;;;;20.64;63.42;100776.47;5012126;28;20462;-67
2021/09/17 10:23:30;;;;;;;0.20;0.10;;;;;;;20.48;64.77;100781.84;5011715;28;20044;-68
2021/09/17 10:26:06;;;;;;;0.00;0.00;;;;;;;20.46;64.34;100776.03;5011225;28;20030;-68
2021/09/17 10:28:33;;;;;;;0.45;0.00;;;;;;;20.28;66.13;100778.31;4986885;28;20125;-67
2021/09/17 10:31:12;;;;;;;5.03;0.20;;;;;;;20.28;66.60;100776.34;5009210;28;20038;-68
2021/09/17 10:33:38;;;;;;;0.20;0.03;;;;;;;20.44;67.18;100781.16;5016244;28;20041;-68
2021/09/17 10:36:04;;;;;;;0.00;0.00;;;;;;;20.41;65.98;100773.75;4997817;28;20411;-67
2021/09/17 10:38:31;;;;;;;0.10;0.10;;;;;;;20.44;64.33;100776.44;4999552;28;20041;-68
2021/09/17 10:41:02;;;;;;;0.25;0.10;;;;;;;20.42;63.95;100775.31;5006642;28;20038;-68
2021/09/17 10:43:38;;;;;;;0.10;0.10;;;;;;;20.24;64.05;100775.63;4995009;28;20092;-67
2021/09/17 10:46:29;;;;;;;0.00;0.00;;;;;;;20.18;64.27;100768.28;5007466;28;20469;-68
2021/09/17 10:48:57;;;;;;;0.47;0.10;;;;;;;20.26;65.03;100776.00;4996938;28;20487;-68
2021/09/17 10:51:41;;;;;;;0.00;0.00;;;;;;;20.28;64.42;100775.56;5002153;28;20088;-70
2021/09/17 10:54:19;;;;;;;0.10;0.10;;;;;;;20.21;65.42;100778.44;5009953;28;20038;-68
2021/09/17 10:56:47;;;;;;;0.10;0.00;;;;;;;20.12;64.83;100776.19;5013446;28;20034;-67
2021/09/17 10:59:21;;;;;;;0.90;0.00;;;;;;;20.03;65.68;100770.50;4999219;28;20128;-67
2021/09/17 11:02:08;;;;;;;0.00;0.00;;;;;;;19.97;67.02;100777.63;5004606;28;20026;-67
2021/09/17 11:04:37;;;;;;;0.00;0.00;;;;;;;20.12;66.75;100776.19;5006334;28;20069;-69
2021/09/17 11:07:17;;;;;;;0.10;0.10;;;;;;;20.16;66.74;100773.41;5010976;28;20029;-67
2021/09/17 11:09:47;;;;;;;0.13;0.10;;;;;;;20.16;66.55;100773.41;5006231;28;20077;-67
2021/09/17 11:12:32;;;;;;;0.20;0.10;;;;;;;20.17;64.79;100769.47;4999829;28;20410;-67
2021/09/17 11:15:14;;;;;;;0.00;0.00;;;;;;;20.09;66.43;100768.81;4989204;28;20068;-67
2021/09/17 11:17:40;;;;;;;0.10;0.10;;;;;;;20.16;65.39;100768.69;5008774;28;20026;-67
2021/09/17 11:20:09;;;;;;;0.00;0.00;;;;;;;20.21;65.57;100776.44;5013912;28;20061;-67
2021/09/17 11:22:51;;;;;;;0.00;0.00;;;;;;;20.16;65.33;100773.41;4990989;28;20457;-67
2021/09/17 11:25:25;;;;;;;0.00;0.00;;;;;;;20.18;65.34;100769.09;4999281;28;20068;-68